VRG2340 PTKK-PTPN
Flight info
| Callsign | VRG2340 |
|---|---|
| Flight time | N/A |
| Altitude | 31000 |
| Route | MICNO R584 BIRUQ |
| Aircraft | B738/M-SDE2E3FGHIRWXY/LB1 |
Departure
| Time | 2026-04-26 15:07 |
|---|---|
| Airport | Chuuk International Airport (PTKK) |
Arrival
| Time | N/A |
|---|---|
| Airport | Pohnpei International Airport (PTPN) |
| Time | Latitude | Longitude | Altitude | Speed | Heading |
|---|---|---|---|---|---|
| 2026-04-26 14:41 | 7.45827 | 151.84148 | 21 ft | 0 kts | 226° |
| 2026-04-26 15:04 | 7.45819 | 151.84125 | 21 ft | 8 kts | 271° |
| 2026-04-26 15:04 | 7.45851 | 151.84073 | 21 ft | 2 kts | 322° |
| 2026-04-26 15:05 | 7.45869 | 151.84059 | 20 ft | 8 kts | 322° |
| 2026-04-26 15:05 | 7.45893 | 151.84013 | 20 ft | 14 kts | 272° |
| 2026-04-26 15:05 | 7.45800 | 151.83893 | 21 ft | 16 kts | 226° |
| 2026-04-26 15:05 | 7.45725 | 151.83813 | 21 ft | 14 kts | 226° |
| 2026-04-26 15:06 | 7.45675 | 151.83733 | 21 ft | 13 kts | 252° |
| 2026-04-26 15:06 | 7.45639 | 151.83714 | 21 ft | 5 kts | 75° |
| 2026-04-26 15:06 | 7.45651 | 151.83730 | 21 ft | 0 kts | 45° |
| 2026-04-26 15:07 | 7.45822 | 151.83913 | 21 ft | 77 kts | 47° |
| 2026-04-26 15:07 | 7.46371 | 151.84485 | 27 ft | 149 kts | 46° |
| 2026-04-26 15:07 | 7.47211 | 151.85272 | 642 ft | 164 kts | 40° |
| 2026-04-26 15:08 | 7.48102 | 151.85877 | 1632 ft | 160 kts | 33° |
| 2026-04-26 15:08 | 7.49055 | 151.86537 | 2121 ft | 175 kts | 43° |
| 2026-04-26 15:08 | 7.50000 | 151.87363 | 2703 ft | 188 kts | 45° |
| 2026-04-26 15:08 | 7.50769 | 151.88454 | 3233 ft | 199 kts | 75° |
| 2026-04-26 15:09 | 7.50646 | 151.89856 | 3770 ft | 218 kts | 112° |
| 2026-04-26 15:09 | 7.49723 | 151.91164 | 4357 ft | 238 kts | 125° |
| 2026-04-26 15:09 | 7.48625 | 151.92474 | 4956 ft | 254 kts | 126° |
| 2026-04-26 15:09 | 7.47522 | 151.93890 | 5695 ft | 262 kts | 120° |
| 2026-04-26 15:10 | 7.46676 | 151.95493 | 6535 ft | 264 kts | 109° |
| 2026-04-26 15:10 | 7.46286 | 151.96648 | 7069 ft | 266 kts | 103° |
| 2026-04-26 15:10 | 7.45837 | 151.99132 | 8097 ft | 273 kts | 95° |
| 2026-04-26 15:10 | 7.45651 | 152.01015 | 8865 ft | 277 kts | 93° |
| 2026-04-26 15:11 | 7.45490 | 152.02966 | 9603 ft | 283 kts | 93° |
| 2026-04-26 15:11 | 7.45322 | 152.04954 | 10288 ft | 290 kts | 93° |
| 2026-04-26 15:11 | 7.45137 | 152.07039 | 10720 ft | 307 kts | 94° |
| 2026-04-26 15:11 | 7.44935 | 152.09215 | 11136 ft | 323 kts | 94° |
| 2026-04-26 15:12 | 7.44717 | 152.11519 | 11650 ft | 334 kts | 94° |
| 2026-04-26 15:12 | 7.44493 | 152.13853 | 12366 ft | 338 kts | 94° |
| 2026-04-26 15:12 | 7.44268 | 152.16206 | 13026 ft | 343 kts | 94° |
| 2026-04-26 15:12 | 7.44036 | 152.18620 | 13716 ft | 347 kts | 94° |
| 2026-04-26 15:13 | 7.43804 | 152.21036 | 14403 ft | 350 kts | 94° |
| 2026-04-26 15:13 | 7.43571 | 152.23474 | 15042 ft | 353 kts | 94° |
| 2026-04-26 15:13 | 7.43331 | 152.25977 | 15679 ft | 357 kts | 94° |
| 2026-04-26 15:13 | 7.43093 | 152.28465 | 16300 ft | 360 kts | 94° |
| 2026-04-26 15:14 | 7.42852 | 152.30975 | 16913 ft | 363 kts | 94° |
| 2026-04-26 15:14 | 7.42607 | 152.33534 | 17492 ft | 367 kts | 94° |
| 2026-04-26 15:14 | 7.42376 | 152.36085 | 18035 ft | 371 kts | 94° |
| 2026-04-26 15:14 | 7.42180 | 152.38692 | 18591 ft | 374 kts | 93° |
| 2026-04-26 15:15 | 7.42007 | 152.41338 | 19108 ft | 378 kts | 92° |
| 2026-04-26 15:15 | 7.41840 | 152.43977 | 19630 ft | 381 kts | 92° |
| 2026-04-26 15:15 | 7.41671 | 152.46640 | 20173 ft | 383 kts | 92° |
| 2026-04-26 15:15 | 7.41498 | 152.49310 | 20665 ft | 387 kts | 93° |
| 2026-04-26 15:16 | 7.41319 | 152.52020 | 21153 ft | 390 kts | 93° |
| 2026-04-26 15:16 | 7.41133 | 152.54762 | 21624 ft | 393 kts | 93° |
| 2026-04-26 15:16 | 7.40948 | 152.57471 | 22115 ft | 394 kts | 93° |
| 2026-04-26 15:16 | 7.40757 | 152.60234 | 22590 ft | 397 kts | 93° |
| 2026-04-26 15:17 | 7.40562 | 152.63031 | 23052 ft | 400 kts | 93° |
| 2026-04-26 15:17 | 7.40434 | 152.64867 | 23338 ft | 402 kts | 93° |
| 2026-04-26 15:17 | 7.40173 | 152.68654 | 23871 ft | 407 kts | 93° |
| 2026-04-26 15:17 | 7.39979 | 152.71472 | 24291 ft | 410 kts | 93° |
| 2026-04-26 15:18 | 7.39781 | 152.74345 | 24764 ft | 411 kts | 93° |
| 2026-04-26 15:18 | 7.39583 | 152.77225 | 25127 ft | 416 kts | 93° |
| 2026-04-26 15:18 | 7.39382 | 152.80121 | 25601 ft | 416 kts | 93° |
| 2026-04-26 15:18 | 7.39178 | 152.83044 | 25976 ft | 420 kts | 93° |
| 2026-04-26 15:19 | 7.38972 | 152.85985 | 26363 ft | 422 kts | 93° |
| 2026-04-26 15:19 | 7.38766 | 152.88933 | 26745 ft | 425 kts | 93° |
| 2026-04-26 15:19 | 7.38558 | 152.91904 | 27121 ft | 428 kts | 93° |
| 2026-04-26 15:19 | 7.38348 | 152.94913 | 27447 ft | 431 kts | 93° |
| 2026-04-26 15:20 | 7.38139 | 152.97923 | 27860 ft | 432 kts | 94° |
| 2026-04-26 15:20 | 7.37933 | 153.00949 | 28133 ft | 437 kts | 93° |
| 2026-04-26 15:20 | 7.37730 | 153.03972 | 28666 ft | 434 kts | 93° |
| 2026-04-26 15:20 | 7.37521 | 153.06969 | 29302 ft | 429 kts | 93° |
| 2026-04-26 15:21 | 7.37311 | 153.09949 | 29802 ft | 427 kts | 93° |
| 2026-04-26 15:21 | 7.37099 | 153.12915 | 30278 ft | 426 kts | 93° |
| 2026-04-26 15:21 | 7.36883 | 153.15909 | 30652 ft | 426 kts | 94° |
| 2026-04-26 15:21 | 7.36669 | 153.18880 | 30813 ft | 430 kts | 94° |
| 2026-04-26 15:22 | 7.36238 | 153.24843 | 30822 ft | 424 kts | 94° |
| 2026-04-26 15:22 | 7.35809 | 153.30777 | 30822 ft | 424 kts | 94° |
| 2026-04-26 15:23 | 7.35386 | 153.36678 | 30822 ft | 424 kts | 94° |
| 2026-04-26 15:23 | 7.34960 | 153.42601 | 30822 ft | 424 kts | 94° |
| 2026-04-26 15:24 | 7.34532 | 153.48537 | 30822 ft | 424 kts | 94° |
| 2026-04-26 15:24 | 7.34107 | 153.54445 | 30822 ft | 424 kts | 94° |
| 2026-04-26 15:25 | 7.33753 | 153.59372 | 30822 ft | 424 kts | 94° |
| 2026-04-26 15:25 | 7.33261 | 153.66249 | 30822 ft | 424 kts | 94° |
| 2026-04-26 15:26 | 7.32835 | 153.72176 | 30822 ft | 423 kts | 94° |
| 2026-04-26 15:26 | 7.32411 | 153.78058 | 30822 ft | 423 kts | 94° |
| 2026-04-26 15:27 | 7.31987 | 153.83940 | 30823 ft | 424 kts | 94° |
| 2026-04-26 15:27 | 7.31562 | 153.89838 | 30822 ft | 422 kts | 94° |
| 2026-04-26 15:28 | 7.31136 | 153.95721 | 30822 ft | 423 kts | 94° |
| 2026-04-26 15:28 | 7.30707 | 154.01636 | 30822 ft | 421 kts | 94° |
| 2026-04-26 15:29 | 7.30277 | 154.07520 | 30822 ft | 423 kts | 94° |